sensor_id;sensor_type;location;lat;lon;timestamp;pressure;altitude;pressure_sealevel;temperature;humidity
21276;BME280;36472;52.170;20.884;2023-07-13T00:02:26;100005.97;;;20.30;91.97
21276;BME280;36472;52.170;20.884;2023-07-13T00:04:55;100007.13;;;20.27;92.00
21276;BME280;36472;52.170;20.884;2023-07-13T00:07:24;99999.28;;;20.26;92.06
21276;BME280;36472;52.170;20.884;2023-07-13T00:09:55;100001.44;;;20.30;91.95
21276;BME280;36472;52.170;20.884;2023-07-13T00:12:27;99993.59;;;20.29;91.90
21276;BME280;36472;52.170;20.884;2023-07-13T00:14:59;99999.13;;;20.27;91.93
21276;BME280;36472;52.170;20.884;2023-07-13T00:17:29;99997.63;;;20.25;92.72
21276;BME280;36472;52.170;20.884;2023-07-13T00:19:58;99987.97;;;20.24;93.04
21276;BME280;36472;52.170;20.884;2023-07-13T00:22:27;99994.63;;;20.28;92.66
21276;BME280;36472;52.170;20.884;2023-07-13T00:24:57;99999.47;;;20.24;92.71
21276;BME280;36472;52.170;20.884;2023-07-13T00:27:26;100002.16;;;20.24;92.76
21276;BME280;36472;52.170;20.884;2023-07-13T00:29:58;100000.00;;;20.20;92.64
21276;BME280;36472;52.170;20.884;2023-07-13T00:32:27;100001.16;;;20.17;92.86
21276;BME280;36472;52.170;20.884;2023-07-13T00:34:56;99996.00;;;20.15;92.91
21276;BME280;36472;52.170;20.884;2023-07-13T00:37:28;99990.16;;;20.12;93.03
21276;BME280;36472;52.170;20.884;2023-07-13T00:39:59;99985.69;;;20.12;93.08
21276;BME280;36472;52.170;20.884;2023-07-13T00:42:28;99991.50;;;20.16;93.02
21276;BME280;36472;52.170;20.884;2023-07-13T00:45:03;99982.66;;;20.15;92.86
21276;BME280;36472;52.170;20.884;2023-07-13T00:47:32;99978.69;;;20.11;92.96
21276;BME280;36472;52.170;20.884;2023-07-13T00:50:04;99983.69;;;20.14;93.16
21276;BME280;36472;52.170;20.884;2023-07-13T00:52:38;99979.81;;;20.17;93.14
21276;BME280;36472;52.170;20.884;2023-07-13T00:55:12;99978.34;;;20.14;92.74
21276;BME280;36472;52.170;20.884;2023-07-13T00:57:43;99981.00;;;20.14;92.82
21276;BME280;36472;52.170;20.884;2023-07-13T01:00:13;99973.66;;;20.16;92.83
21276;BME280;36472;52.170;20.884;2023-07-13T01:02:45;99982.47;;;20.17;92.87
21276;BME280;36472;52.170;20.884;2023-07-13T01:05:17;99991.50;;;20.16;92.87
21276;BME280;36472;52.170;20.884;2023-07-13T01:07:50;99987.00;;;20.16;92.67
21276;BME280;36472;52.170;20.884;2023-07-13T01:10:24;99993.31;;;20.15;92.64
21276;BME280;36472;52.170;20.884;2023-07-13T01:12:53;99995.00;;;20.16;92.51
21276;BME280;36472;52.170;20.884;2023-07-13T01:15:48;100002.66;;;20.20;92.15
21276;BME280;36472;52.170;20.884;2023-07-13T01:18:23;99998.66;;;20.15;92.75
21276;BME280;36472;52.170;20.884;2023-07-13T01:21:00;99996.84;;;20.16;92.36
21276;BME280;36472;52.170;20.884;2023-07-13T01:23:31;99989.84;;;20.15;92.62
21276;BME280;36472;52.170;20.884;2023-07-13T01:26:02;99992.00;;;20.11;92.78
21276;BME280;36472;52.170;20.884;2023-07-13T01:28:31;99999.03;;;20.12;93.02
21276;BME280;36472;52.170;20.884;2023-07-13T01:31:04;100001.22;;;20.09;93.27
21276;BME280;36472;52.170;20.884;2023-07-13T01:33:33;100010.69;;;20.11;92.98
21276;BME280;36472;52.170;20.884;2023-07-13T01:36:05;100012.84;;;20.16;92.83
21276;BME280;36472;52.170;20.884;2023-07-13T01:38:36;100005.69;;;20.08;93.13
21276;BME280;36472;52.170;20.884;2023-07-13T01:41:05;100018.03;;;20.09;93.47
21276;BME280;36472;52.170;20.884;2023-07-13T01:43:34;100010.53;;;20.05;93.83
21276;BME280;36472;52.170;20.884;2023-07-13T01:46:03;100015.38;;;20.01;93.80
21276;BME280;36472;52.170;20.884;2023-07-13T01:48:49;100021.53;;;20.02;93.81
21276;BME280;36472;52.170;20.884;2023-07-13T01:51:20;100010.38;;;20.06;93.63
21276;BME280;36472;52.170;20.884;2023-07-13T01:53:49;100001.53;;;20.06;93.47
21276;BME280;36472;52.170;20.884;2023-07-13T01:56:19;100013.03;;;20.06;93.75
21276;BME280;36472;52.170;20.884;2023-07-13T01:58:48;100009.53;;;20.06;93.58
21276;BME280;36472;52.170;20.884;2023-07-13T02:01:17;100015.69;;;20.06;93.64
21276;BME280;36472;52.170;20.884;2023-07-13T02:03:47;100024.69;;;20.13;93.06
21276;BME280;36472;52.170;20.884;2023-07-13T02:06:16;100025.69;;;20.12;92.80
21276;BME280;36472;52.170;20.884;2023-07-13T02:08:46;100026.19;;;20.08;93.41
21276;BME280;36472;52.170;20.884;2023-07-13T02:11:15;100031.88;;;20.05;93.90
21276;BME280;36472;52.170;20.884;2023-07-13T02:13:44;100030.88;;;20.06;93.45
21276;BME280;36472;52.170;20.884;2023-07-13T02:16:14;100023.88;;;20.05;93.28
21276;BME280;36472;52.170;20.884;2023-07-13T02:18:43;100026.19;;;20.08;93.01
21276;BME280;36472;52.170;20.884;2023-07-13T02:21:12;100028.69;;;20.09;92.71
21276;BME280;36472;52.170;20.884;2023-07-13T02:23:40;100024.69;;;20.05;93.00
21276;BME280;36472;52.170;20.884;2023-07-13T02:26:11;100024.69;;;20.05;92.82
21276;BME280;36472;52.170;20.884;2023-07-13T02:28:40;100034.38;;;20.06;92.90
21276;BME280;36472;52.170;20.884;2023-07-13T02:31:12;100034.72;;;20.03;93.23
21276;BME280;36472;52.170;20.884;2023-07-13T02:33:42;100033.22;;;20.01;93.04
21276;BME280;36472;52.170;20.884;2023-07-13T02:36:12;100035.03;;;20.00;93.04
21276;BME280;36472;52.170;20.884;2023-07-13T02:38:45;100028.41;;;19.96;93.24
21276;BME280;36472;52.170;20.884;2023-07-13T02:41:15;100030.41;;;19.94;93.29
21276;BME280;36472;52.170;20.884;2023-07-13T02:43:45;100028.91;;;19.91;93.49
21276;BME280;36472;52.170;20.884;2023-07-13T02:46:14;100030.41;;;19.86;93.76
21276;BME280;36472;52.170;20.884;2023-07-13T02:48:43;100026.94;;;19.85;93.77
21276;BME280;36472;52.170;20.884;2023-07-13T02:51:14;100023.06;;;19.88;94.11
21276;BME280;36472;52.170;20.884;2023-07-13T02:53:42;100017.91;;;19.86;94.01
21276;BME280;36472;52.170;20.884;2023-07-13T02:56:11;100018.28;;;19.83;93.82
21276;BME280;36472;52.170;20.884;2023-07-13T02:58:45;100028.94;;;19.83;94.07
21276;BME280;36472;52.170;20.884;2023-07-13T03:01:14;100018.28;;;19.83;93.92
21276;BME280;36472;52.170;20.884;2023-07-13T03:03:48;100023.06;;;19.88;94.02
21276;BME280;36472;52.170;20.884;2023-07-13T03:06:20;100025.56;;;19.89;93.57
21276;BME280;36472;52.170;20.884;2023-07-13T03:08:53;100024.59;;;19.90;93.33
21276;BME280;36472;52.170;20.884;2023-07-13T03:11:23;100039.06;;;19.88;93.37
21276;BME280;36472;52.170;20.884;2023-07-13T03:14:20;100028.25;;;19.89;93.52
21276;BME280;36472;52.170;20.884;2023-07-13T03:16:49;100022.41;;;19.86;93.54
21276;BME280;36472;52.170;20.884;2023-07-13T03:19:23;100028.09;;;19.83;93.78
21276;BME280;36472;52.170;20.884;2023-07-13T03:21:52;100027.59;;;19.79;93.40
21276;BME280;36472;52.170;20.884;2023-07-13T03:28:54;100012.44;;;19.63;94.46
21276;BME280;36472;52.170;20.884;2023-07-13T03:31:28;100016.75;;;19.64;94.28
21276;BME280;36472;52.170;20.884;2023-07-13T03:33:58;100018.41;;;19.65;94.27
21276;BME280;36472;52.170;20.884;2023-07-13T03:36:30;100016.25;;;19.69;94.05
21276;BME280;36472;52.170;20.884;2023-07-13T03:39:05;100007.59;;;19.67;94.13
21276;BME280;36472;52.170;20.884;2023-07-13T03:41:52;100000.91;;;19.62;94.85
21276;BME280;36472;52.170;20.884;2023-07-13T03:44:22;100006.41;;;19.69;94.88
21276;BME280;36472;52.170;20.884;2023-07-13T03:46:56;100005.28;;;19.80;94.52
21276;BME280;36472;52.170;20.884;2023-07-13T03:49:26;100011.25;;;19.82;94.95
21276;BME280;36472;52.170;20.884;2023-07-13T03:51:55;99996.06;;;19.91;94.86
21276;BME280;36472;52.170;20.884;2023-07-13T03:54:24;100007.22;;;20.03;94.33
21276;BME280;36472;52.170;20.884;2023-07-13T03:56:52;100007.38;;;20.09;93.88
21276;BME280;36472;52.170;20.884;2023-07-13T03:59:22;100002.69;;;20.11;94.07
21276;BME280;36472;52.170;20.884;2023-07-13T04:01:51;100005.66;;;20.16;93.80
21276;BME280;36472;52.170;20.884;2023-07-13T04:04:23;100014.16;;;20.20;93.98
21276;BME280;36472;52.170;20.884;2023-07-13T04:06:53;100010.47;;;20.29;93.69
21276;BME280;36472;52.170;20.884;2023-07-13T04:09:22;100021.94;;;20.38;93.73
21276;BME280;36472;52.170;20.884;2023-07-13T04:11:51;100022.56;;;20.48;93.72
21276;BME280;36472;52.170;20.884;2023-07-13T04:14:20;100021.16;;;20.61;93.49
21276;BME280;36472;52.170;20.884;2023-07-13T04:21:23;100030.03;;;20.92;91.98
21276;BME280;36472;52.170;20.884;2023-07-13T04:23:52;100044.28;;;21.08;91.47
21276;BME280;36472;52.170;20.884;2023-07-13T04:26:21;100046.19;;;21.22;91.04
21276;BME280;36472;52.170;20.884;2023-07-13T04:28:51;100052.13;;;21.33;91.11
21276;BME280;36472;52.170;20.884;2023-07-13T04:31:21;100055.72;;;21.40;90.42
21276;BME280;36472;52.170;20.884;2023-07-13T04:33:50;100050.84;;;21.43;89.87
21276;BME280;36472;52.170;20.884;2023-07-13T04:36:20;100058.19;;;21.50;89.24
21276;BME280;36472;52.170;20.884;2023-07-13T04:38:51;100051.28;;;21.55;89.09
21276;BME280;36472;52.170;20.884;2023-07-13T04:41:21;100058.97;;;21.58;89.50
21276;BME280;36472;52.170;20.884;2023-07-13T04:43:50;100061.94;;;21.63;88.44
21276;BME280;36472;52.170;20.884;2023-07-13T04:46:23;100073.81;;;21.61;88.53
21276;BME280;36472;52.170;20.884;2023-07-13T04:48:52;100073.91;;;21.67;88.86
21276;BME280;36472;52.170;20.884;2023-07-13T04:51:22;100069.69;;;21.73;90.03
21276;BME280;36472;52.170;20.884;2023-07-13T04:53:52;100059.13;;;21.80;89.58
21276;BME280;36472;52.170;20.884;2023-07-13T04:56:28;100064.38;;;21.88;89.19
21276;BME280;36472;52.170;20.884;2023-07-13T04:58:57;100060.88;;;21.88;89.69
21276;BME280;36472;52.170;20.884;2023-07-13T05:01:27;100067.53;;;21.92;90.19
21276;BME280;36472;52.170;20.884;2023-07-13T05:03:56;100075.66;;;21.98;89.89
21276;BME280;36472;52.170;20.884;2023-07-13T05:06:27;100085.78;;;22.03;90.16
21276;BME280;36472;52.170;20.884;2023-07-13T05:13:29;100084.59;;;22.06;88.33
21276;BME280;36472;52.170;20.884;2023-07-13T05:16:03;100083.75;;;22.05;88.67
21276;BME280;36472;52.170;20.884;2023-07-13T05:18:34;100097.91;;;22.14;89.00
21276;BME280;36472;52.170;20.884;2023-07-13T05:21:08;100102.69;;;22.18;88.27
21276;BME280;36472;52.170;20.884;2023-07-13T05:23:38;100106.88;;;22.21;88.01
21276;BME280;36472;52.170;20.884;2023-07-13T05:26:10;100110.50;;;22.28;88.20
21276;BME280;36472;52.170;20.884;2023-07-13T05:28:40;100114.72;;;22.37;87.90
21276;BME280;36472;52.170;20.884;2023-07-13T05:31:10;100111.34;;;22.44;87.33
21276;BME280;36472;52.170;20.884;2023-07-13T05:33:40;100120.84;;;22.46;86.68
21276;BME280;36472;52.170;20.884;2023-07-13T05:36:09;100115.38;;;22.54;86.48
21276;BME280;36472;52.170;20.884;2023-07-13T05:38:38;100113.78;;;22.75;86.05
21276;BME280;36472;52.170;20.884;2023-07-13T05:45:40;100121.56;;;23.21;82.81
21276;BME280;36472;52.170;20.884;2023-07-13T05:48:09;100127.34;;;23.18;83.65
21276;BME280;36472;52.170;20.884;2023-07-13T05:50:38;100121.56;;;23.21;83.69
21276;BME280;36472;52.170;20.884;2023-07-13T05:53:07;100126.00;;;23.29;83.28
21276;BME280;36472;52.170;20.884;2023-07-13T05:55:41;100130.34;;;23.30;82.63
21276;BME280;36472;52.170;20.884;2023-07-13T05:58:11;100128.94;;;23.34;83.49
21276;BME280;36472;52.170;20.884;2023-07-13T06:00:42;100105.44;;;23.36;82.90
21276;BME280;36472;52.170;20.884;2023-07-13T06:03:11;100101.63;;;23.45;83.10
21276;BME280;36472;52.170;20.884;2023-07-13T06:05:41;100100.91;;;23.58;82.08
21276;BME280;36472;52.170;20.884;2023-07-13T06:08:10;100100.97;;;23.65;82.41
21276;BME280;36472;52.170;20.884;2023-07-13T06:10:39;100102.00;;;23.85;81.89
21276;BME280;36472;52.170;20.884;2023-07-13T06:13:08;100112.09;;;23.83;81.45
21276;BME280;36472;52.170;20.884;2023-07-13T06:15:37;100112.75;;;23.85;82.62
21276;BME280;36472;52.170;20.884;2023-07-13T06:18:07;100113.84;;;23.98;81.23
21276;BME280;36472;52.170;20.884;2023-07-13T06:20:37;100109.59;;;24.10;81.58
21276;BME280;36472;52.170;20.884;2023-07-13T06:23:05;100103.88;;;24.48;80.23
21276;BME280;36472;52.170;20.884;2023-07-13T06:25:35;100100.31;;;24.76;78.93
21276;BME280;36472;52.170;20.884;2023-07-13T06:28:04;100100.97;;;24.91;77.11
21276;BME280;36472;52.170;20.884;2023-07-13T06:30:33;100098.38;;;25.11;75.58
21276;BME280;36472;52.170;20.884;2023-07-13T06:33:02;100107.75;;;25.35;73.21
21276;BME280;36472;52.170;20.884;2023-07-13T06:40:07;100107.78;;;25.82;69.85
21276;BME280;36472;52.170;20.884;2023-07-13T06:42:36;100108.59;;;25.89;69.31
21276;BME280;36472;52.170;20.884;2023-07-13T06:45:07;100103.63;;;26.20;67.89
21276;BME280;36472;52.170;20.884;2023-07-13T06:47:36;100099.69;;;26.29;67.15
21276;BME280;36472;52.170;20.884;2023-07-13T06:50:06;100110.00;;;26.45;66.88
21276;BME280;36472;52.170;20.884;2023-07-13T06:57:10;100109.75;;;26.74;56.78
21276;BME280;36472;52.170;20.884;2023-07-13T06:59:39;100104.75;;;26.71;55.34
21276;BME280;36472;52.170;20.884;2023-07-13T07:02:10;100101.34;;;26.88;54.40
21276;BME280;36472;52.170;20.884;2023-07-13T07:04:39;100099.22;;;27.04;52.87
21276;BME280;36472;52.170;20.884;2023-07-13T07:07:08;100089.38;;;27.23;51.23
21276;BME280;36472;52.170;20.884;2023-07-13T07:09:37;100094.06;;;27.34;51.50
21276;BME280;36472;52.170;20.884;2023-07-13T07:12:07;100094.53;;;27.56;52.91
21276;BME280;36472;52.170;20.884;2023-07-13T07:19:12;100108.09;;;27.75;48.68
21276;BME280;36472;52.170;20.884;2023-07-13T07:21:41;100110.47;;;27.65;49.07
21276;BME280;36472;52.170;20.884;2023-07-13T07:28:42;100119.78;;;27.43;50.27
21276;BME280;36472;52.170;20.884;2023-07-13T07:31:16;100121.41;;;27.45;48.73
21276;BME280;36472;52.170;20.884;2023-07-13T07:33:48;100114.44;;;27.62;49.63
21276;BME280;36472;52.170;20.884;2023-07-13T07:36:19;100116.97;;;27.82;48.25
21276;BME280;36472;52.170;20.884;2023-07-13T07:38:51;100109.25;;;27.86;49.96
21276;BME280;36472;52.170;20.884;2023-07-13T07:45:52;100119.78;;;28.19;50.19
21276;BME280;36472;52.170;20.884;2023-07-13T07:48:22;100117.31;;;28.17;47.47
21276;BME280;36472;52.170;20.884;2023-07-13T07:50:51;100113.94;;;28.22;48.07
21276;BME280;36472;52.170;20.884;2023-07-13T07:53:21;100122.81;;;28.29;48.95
21276;BME280;36472;52.170;20.884;2023-07-13T07:55:51;100123.84;;;28.28;48.44
21276;BME280;36472;52.170;20.884;2023-07-13T07:58:23;100123.63;;;28.30;48.01
21276;BME280;36472;52.170;20.884;2023-07-13T08:01:03;100126.84;;;27.70;48.83
21276;BME280;36472;52.170;20.884;2023-07-13T08:03:35;100119.00;;;27.93;49.33
21276;BME280;36472;52.170;20.884;2023-07-13T08:06:07;100123.59;;;28.11;46.41
21276;BME280;36472;52.170;20.884;2023-07-13T08:08:40;100125.34;;;28.24;45.36
21276;BME280;36472;52.170;20.884;2023-07-13T08:11:09;100119.94;;;28.24;45.92
21276;BME280;36472;52.170;20.884;2023-07-13T08:13:42;100112.72;;;28.18;45.55
21276;BME280;36472;52.170;20.884;2023-07-13T08:16:11;100116.50;;;28.35;46.31
21276;BME280;36472;52.170;20.884;2023-07-13T08:18:40;100116.44;;;28.61;45.77
21276;BME280;36472;52.170;20.884;2023-07-13T08:21:09;100115.63;;;28.60;46.64
21276;BME280;36472;52.170;20.884;2023-07-13T08:23:40;100107.66;;;28.65;47.54
21276;BME280;36472;52.170;20.884;2023-07-13T08:26:10;100111.50;;;28.58;47.67
21276;BME280;36472;52.170;20.884;2023-07-13T08:28:39;100104.56;;;28.43;47.38
21276;BME280;36472;52.170;20.884;2023-07-13T08:35:40;100109.47;;;28.71;49.30
21276;BME280;36472;52.170;20.884;2023-07-13T08:38:08;100106.59;;;28.85;48.52
21276;BME280;36472;52.170;20.884;2023-07-13T08:40:39;100114.78;;;28.78;49.21
21276;BME280;36472;52.170;20.884;2023-07-13T08:43:16;100096.38;;;28.87;49.38
21276;BME280;36472;52.170;20.884;2023-07-13T08:45:51;100113.19;;;29.07;49.99
21276;BME280;36472;52.170;20.884;2023-07-13T08:48:28;100104.56;;;29.29;47.72
21276;BME280;36472;52.170;20.884;2023-07-13T08:51:12;100113.09;;;29.14;48.13
21276;BME280;36472;52.170;20.884;2023-07-13T08:53:55;100119.84;;;29.05;48.93
21276;BME280;36472;52.170;20.884;2023-07-13T08:56:30;100128.91;;;29.10;49.18
21276;BME280;36472;52.170;20.884;2023-07-13T08:59:06;100122.34;;;29.06;48.85
21276;BME280;36472;52.170;20.884;2023-07-13T09:02:20;100125.19;;;29.12;48.96
21276;BME280;36472;52.170;20.884;2023-07-13T09:04:57;100124.75;;;28.96;49.48
21276;BME280;36472;52.170;20.884;2023-07-13T09:07:47;100115.66;;;29.09;50.26
21276;BME280;36472;52.170;20.884;2023-07-13T09:10:26;100118.66;;;29.19;49.32
21276;BME280;36472;52.170;20.884;2023-07-13T09:13:22;100124.34;;;29.11;49.69
21276;BME280;36472;52.170;20.884;2023-07-13T09:15:55;100102.13;;;29.09;49.44
21276;BME280;36472;52.170;20.884;2023-07-13T09:18:33;100124.91;;;29.01;50.03
21276;BME280;36472;52.170;20.884;2023-07-13T09:21:09;100123.38;;;29.05;49.89
21276;BME280;36472;52.170;20.884;2023-07-13T09:23:41;100119.22;;;28.91;49.36
21276;BME280;36472;52.170;20.884;2023-07-13T09:26:14;100111.84;;;28.80;50.18
21276;BME280;36472;52.170;20.884;2023-07-13T09:28:51;100109.09;;;28.68;51.04
21276;BME280;36472;52.170;20.884;2023-07-13T09:35:53;100100.06;;;28.74;50.81
21276;BME280;36472;52.170;20.884;2023-07-13T09:38:24;100092.97;;;28.91;49.85
21276;BME280;36472;52.170;20.884;2023-07-13T09:41:14;100096.31;;;28.94;49.40
21276;BME280;36472;52.170;20.884;2023-07-13T09:44:28;100088.66;;;28.72;49.94
21276;BME280;36472;52.170;20.884;2023-07-13T09:46:59;100071.72;;;28.95;49.36
21276;BME280;36472;52.170;20.884;2023-07-13T09:49:35;100068.81;;;29.08;48.82
21276;BME280;36472;52.170;20.884;2023-07-13T09:52:10;100067.31;;;29.13;50.19
21276;BME280;36472;52.170;20.884;2023-07-13T09:54:48;100065.16;;;29.03;49.87
21276;BME280;36472;52.170;20.884;2023-07-13T09:57:23;100047.91;;;29.04;49.84
21276;BME280;36472;52.170;20.884;2023-07-13T10:04:30;100051.81;;;28.59;47.43
21276;BME280;36472;52.170;20.884;2023-07-13T10:07:08;100065.09;;;28.24;47.46
21276;BME280;36472;52.170;20.884;2023-07-13T10:09:57;100063.13;;;27.87;46.55
21276;BME280;36472;52.170;20.884;2023-07-13T10:12:35;100065.34;;;27.47;47.37
21276;BME280;36472;52.170;20.884;2023-07-13T10:15:16;100049.88;;;26.97;48.33
21276;BME280;36472;52.170;20.884;2023-07-13T10:17:53;100054.53;;;26.83;48.96
21276;BME280;36472;52.170;20.884;2023-07-13T10:20:27;100064.16;;;26.59;49.63
21276;BME280;36472;52.170;20.884;2023-07-13T10:27:34;100048.75;;;26.14;49.90
21276;BME280;36472;52.170;20.884;2023-07-13T10:30:15;100062.22;;;25.94;50.48
21276;BME280;36472;52.170;20.884;2023-07-13T10:32:47;100060.19;;;25.76;52.06
21276;BME280;36472;52.170;20.884;2023-07-13T10:35:19;100076.72;;;25.39;55.03
21276;BME280;36472;52.170;20.884;2023-07-13T10:37:56;100089.78;;;24.81;61.33
21276;BME280;36472;52.170;20.884;2023-07-13T10:40:35;100110.47;;;24.11;68.00
21276;BME280;36472;52.170;20.884;2023-07-13T10:43:14;100123.78;;;23.32;75.34
21276;BME280;36472;52.170;20.884;2023-07-13T10:45:47;100135.97;;;22.54;81.27
21276;BME280;36472;52.170;20.884;2023-07-13T10:48:19;100144.75;;;21.48;87.77
21276;BME280;36472;52.170;20.884;2023-07-13T10:50:53;100152.44;;;20.81;93.88
21276;BME280;36472;52.170;20.884;2023-07-13T10:53:32;100151.91;;;20.13;99.35
21276;BME280;36472;52.170;20.884;2023-07-13T10:56:03;100157.41;;;19.87;100.00
21276;BME280;36472;52.170;20.884;2023-07-13T10:58:36;100156.38;;;19.63;100.00
21276;BME280;36472;52.170;20.884;2023-07-13T11:05:40;100156.31;;;19.30;100.00
21276;BME280;36472;52.170;20.884;2023-07-13T11:08:19;100151.31;;;19.27;100.00
21276;BME280;36472;52.170;20.884;2023-07-13T11:10:55;100151.81;;;19.31;100.00
21276;BME280;36472;52.170;20.884;2023-07-13T11:13:56;100149.66;;;19.34;100.00
21276;BME280;36472;52.170;20.884;2023-07-13T11:16:43;100152.81;;;19.38;100.00
21276;BME280;36472;52.170;20.884;2023-07-13T11:23:53;100147.63;;;19.20;100.00
21276;BME280;36472;52.170;20.884;2023-07-13T11:26:41;100154.44;;;19.22;100.00
21276;BME280;36472;52.170;20.884;2023-07-13T11:33:28;100172.81;;;19.42;100.00
21276;BME280;36472;52.170;20.884;2023-07-13T11:36:02;100184.00;;;19.46;100.00
21276;BME280;36472;52.170;20.884;2023-07-13T11:38:37;100207.97;;;19.46;100.00
21276;BME280;36472;52.170;20.884;2023-07-13T11:41:16;100204.63;;;19.35;100.00
21276;BME280;36472;52.170;20.884;2023-07-13T11:43:50;100213.88;;;19.23;100.00
21276;BME280;36472;52.170;20.884;2023-07-13T11:46:22;100215.69;;;19.14;100.00
21276;BME280;36472;52.170;20.884;2023-07-13T11:48:53;100223.81;;;19.13;100.00
21276;BME280;36472;52.170;20.884;2023-07-13T11:51:25;100231.34;;;19.17;100.00
21276;BME280;36472;52.170;20.884;2023-07-13T11:54:03;100227.34;;;19.21;100.00
21276;BME280;36472;52.170;20.884;2023-07-13T11:56:36;100226.53;;;19.21;100.00
21276;BME280;36472;52.170;20.884;2023-07-13T11:59:12;100229.88;;;19.23;100.00
21276;BME280;36472;52.170;20.884;2023-07-13T12:01:45;100222.38;;;19.18;100.00
21276;BME280;36472;52.170;20.884;2023-07-13T12:04:23;100215.22;;;19.19;100.00
21276;BME280;36472;52.170;20.884;2023-07-13T12:11:25;100207.59;;;19.32;100.00
21276;BME280;36472;52.170;20.884;2023-07-13T12:13:54;100205.94;;;19.31;100.00
21276;BME280;36472;52.170;20.884;2023-07-13T12:16:29;100196.94;;;19.32;100.00
21276;BME280;36472;52.170;20.884;2023-07-13T12:19:02;100200.59;;;19.31;100.00
21276;BME280;36472;52.170;20.884;2023-07-13T12:21:37;100202.47;;;19.39;100.00
21276;BME280;36472;52.170;20.884;2023-07-13T12:24:15;100193.97;;;19.43;100.00
21276;BME280;36472;52.170;20.884;2023-07-13T12:31:37;100183.47;;;19.50;100.00
21276;BME280;36472;52.170;20.884;2023-07-13T12:34:10;100188.50;;;19.53;100.00
21276;BME280;36472;52.170;20.884;2023-07-13T12:36:49;100184.00;;;19.54;100.00
21276;BME280;36472;52.170;20.884;2023-07-13T12:39:22;100183.03;;;19.63;100.00
21276;BME280;36472;52.170;20.884;2023-07-13T12:41:53;100182.88;;;19.65;100.00
21276;BME280;36472;52.170;20.884;2023-07-13T12:48:57;100175.34;;;19.60;100.00
21276;BME280;36472;52.170;20.884;2023-07-13T12:51:50;100170.53;;;19.63;100.00
21276;BME280;36472;52.170;20.884;2023-07-13T12:54:19;100172.88;;;19.67;100.00
21276;BME280;36472;52.170;20.884;2023-07-13T12:56:51;100170.75;;;19.78;100.00
21276;BME280;36472;52.170;20.884;2023-07-13T12:59:22;100175.41;;;19.85;100.00
21276;BME280;36472;52.170;20.884;2023-07-13T13:01:54;100170.72;;;20.03;100.00
21276;BME280;36472;52.170;20.884;2023-07-13T13:04:25;100171.41;;;19.97;100.00
21276;BME280;36472;52.170;20.884;2023-07-13T13:07:08;100176.41;;;20.08;100.00
21276;BME280;36472;52.170;20.884;2023-07-13T13:09:38;100177.06;;;20.18;100.00
21276;BME280;36472;52.170;20.884;2023-07-13T13:12:08;100179.56;;;20.28;100.00
21276;BME280;36472;52.170;20.884;2023-07-13T13:14:41;100176.88;;;20.28;100.00
21276;BME280;36472;52.170;20.884;2023-07-13T13:21:45;100183.22;;;20.27;100.00
21276;BME280;36472;52.170;20.884;2023-07-13T13:24:17;100191.91;;;20.21;100.00
21276;BME280;36472;52.170;20.884;2023-07-13T13:26:49;100188.06;;;20.15;100.00
21276;BME280;36472;52.170;20.884;2023-07-13T13:29:21;100198.56;;;20.25;100.00
21276;BME280;36472;52.170;20.884;2023-07-13T13:31:53;100203.41;;;20.38;100.00
21276;BME280;36472;52.170;20.884;2023-07-13T13:34:24;100191.38;;;20.50;100.00
21276;BME280;36472;52.170;20.884;2023-07-13T13:36:55;100197.34;;;20.61;100.00
21276;BME280;36472;52.170;20.884;2023-07-13T13:39:33;100195.19;;;20.64;100.00
21276;BME280;36472;52.170;20.884;2023-07-13T13:42:03;100197.88;;;20.64;100.00
21276;BME280;36472;52.170;20.884;2023-07-13T13:49:04;100206.34;;;20.84;100.00
21276;BME280;36472;52.170;20.884;2023-07-13T13:51:34;100212.19;;;20.71;100.00
21276;BME280;36472;52.170;20.884;2023-07-13T13:54:10;100216.38;;;20.74;100.00
21276;BME280;36472;52.170;20.884;2023-07-13T13:56:41;100218.72;;;20.77;100.00
21276;BME280;36472;52.170;20.884;2023-07-13T13:59:11;100226.53;;;20.79;100.00
21276;BME280;36472;52.170;20.884;2023-07-13T14:01:42;100220.69;;;20.83;100.00
21276;BME280;36472;52.170;20.884;2023-07-13T14:04:17;100217.34;;;20.89;100.00
21276;BME280;36472;52.170;20.884;2023-07-13T14:06:47;100212.31;;;20.95;100.00
21276;BME280;36472;52.170;20.884;2023-07-13T14:13:52;100210.78;;;21.00;100.00
21276;BME280;36472;52.170;20.884;2023-07-13T14:16:27;100206.09;;;21.02;100.00
21276;BME280;36472;52.170;20.884;2023-07-13T14:23:29;100213.41;;;21.08;100.00
21276;BME280;36472;52.170;20.884;2023-07-13T14:25:58;100216.94;;;21.01;100.00
21276;BME280;36472;52.170;20.884;2023-07-13T14:28:27;100214.66;;;20.98;100.00
21276;BME280;36472;52.170;20.884;2023-07-13T14:30:58;100214.59;;;21.06;100.00
21276;BME280;36472;52.170;20.884;2023-07-13T14:33:28;100216.09;;;21.08;100.00
21276;BME280;36472;52.170;20.884;2023-07-13T14:35:57;100209.94;;;21.08;100.00
21276;BME280;36472;52.170;20.884;2023-07-13T14:38:27;100221.41;;;21.17;100.00
21276;BME280;36472;52.170;20.884;2023-07-13T14:40:56;100221.06;;;21.20;100.00
21276;BME280;36472;52.170;20.884;2023-07-13T14:43:25;100219.69;;;21.24;100.00
21276;BME280;36472;52.170;20.884;2023-07-13T14:45:58;100215.50;;;21.29;100.00
21276;BME280;36472;52.170;20.884;2023-07-13T14:48:27;100219.66;;;21.32;100.00
21276;BME280;36472;52.170;20.884;2023-07-13T14:50:58;100229.00;;;21.36;100.00